Time;durP1;ratioP1;P1;durP2;ratioP2;P2;SDS_P1;SDS_P2;PMS_P1;PMS_P2;Temp;Humidity;BMP_temperature;BMP_pressure;BME280_temperature;BME280_humidity;BME280_pressure;Samples;Min_cycle;Max_cycle;Signal;HPM_P1;HPM_P2
2023/10/17 00:00:35;;;;;;;;;4.20;4.00;;;;;14.63;92.98;100805.75;2082937;28;46676;-59
2023/10/17 00:01:44;;;;;;;;;4.00;4.00;;;;;14.65;92.98;100811.03;2101957;28;47050;-58
2023/10/17 00:02:44;;;;;;;;;4.80;4.80;;;;;14.64;92.76;100809.31;2082005;28;46797;-60
2023/10/17 00:03:45;;;;;;;;;3.25;3.25;;;;;14.63;92.84;100807.56;2082269;28;45849;-59
2023/10/17 00:04:46;;;;;;;;;3.00;3.00;;;;;14.61;93.04;100807.63;2098643;28;46899;-58
2023/10/17 00:05:46;;;;;;;;;2.75;2.75;;;;;14.58;92.67;100812.19;2077540;28;46650;-59
2023/10/17 00:06:47;;;;;;;;;4.00;4.00;;;;;14.56;92.60;100804.22;2088790;28;45913;-58
2023/10/17 00:07:47;;;;;;;;;4.00;4.00;;;;;14.55;92.61;100813.16;2080126;28;46290;-58
2023/10/17 00:08:51;;;;;;;;;4.00;4.00;;;;;14.55;93.01;100815.84;2081487;28;46675;-57
2023/10/17 00:09:53;;;;;;;;;5.00;5.00;;;;;14.55;92.83;100815.84;2103262;27;46925;-58
2023/10/17 00:10:54;;;;;;;;;5.25;4.75;;;;;14.55;93.17;100813.16;2082957;28;46507;-57
2023/10/17 00:13:08;;;;;;;;;4.25;4.25;;;;;14.54;93.20;100806.09;2066411;28;46920;-59
2023/10/17 00:14:11;;;;;;;;;4.00;3.20;;;;;14.54;93.19;100798.06;2085342;28;46372;-60
2023/10/17 00:15:27;;;;;;;;;3.80;3.00;;;;;14.55;93.20;100799.81;2095804;28;47207;-59
2023/10/17 00:16:30;;;;;;;;;5.80;4.60;;;;;14.54;93.49;100798.06;2062275;28;47089;-58
2023/10/17 00:17:30;;;;;;;;;3.80;3.80;;;;;14.54;92.96;100798.06;2091964;28;46409;-58
2023/10/17 00:18:31;;;;;;;;;4.00;3.00;;;;;14.51;92.86;100792.84;2100605;28;46805;-57
2023/10/17 00:19:31;;;;;;;;;3.00;3.00;;;;;14.52;92.95;100799.94;2105322;28;46666;-60
2023/10/17 00:20:37;;;;;;;;;2.25;2.25;;;;;14.52;93.35;100794.59;2093706;27;46405;-61
2023/10/17 00:21:41;;;;;;;;;5.20;4.40;;;;;14.53;93.34;100796.34;2100562;28;45593;-59
2023/10/17 00:22:42;;;;;;;;;4.40;4.40;;;;;14.52;93.04;100796.41;2104353;28;46362;-59
2023/10/17 00:23:42;;;;;;;;;3.00;3.00;;;;;14.52;93.31;100801.72;2088590;28;46733;-60
2023/10/17 00:24:46;;;;;;;;;4.75;3.00;;;;;14.52;93.16;100801.72;2096914;28;46829;-60
2023/10/17 00:25:49;;;;;;;;;2.75;2.00;;;;;14.52;93.09;100805.28;2062682;28;46671;-57
2023/10/17 00:26:49;;;;;;;;;6.00;5.00;;;;;14.51;93.22;100794.66;2075947;28;46609;-59
2023/10/17 00:27:50;;;;;;;;;3.00;3.00;;;;;14.51;93.32;100795.53;2069024;28;46504;-59
2023/10/17 00:28:53;;;;;;;;;2.25;2.25;;;;;14.50;93.38;100793.78;2093001;28;46928;-59
2023/10/17 00:29:53;;;;;;;;;6.00;4.00;;;;;14.48;93.47;100789.41;2102734;28;46492;-59
2023/10/17 00:30:54;;;;;;;;;4.75;4.75;;;;;14.47;93.48;100785.84;2105268;28;47113;-59
2023/10/17 00:31:55;;;;;;;;;4.25;4.25;;;;;14.48;93.55;100794.75;2102761;28;46759;-62
2023/10/17 00:32:56;;;;;;;;;4.50;4.00;;;;;14.45;93.79;100790.38;2104709;28;47153;-57
2023/10/17 00:34:12;;;;;;;;;5.00;5.00;;;;;14.46;93.87;100786.78;2104489;28;46629;-58
2023/10/17 00:35:14;;;;;;;;;6.60;6.60;;;;;14.46;93.89;100788.59;2071231;28;46047;-61
2023/10/17 00:36:16;;;;;;;;;5.40;5.00;;;;;14.46;93.75;100788.59;2056221;28;46951;-60
2023/10/17 00:37:19;;;;;;;;;5.20;5.00;;;;;14.45;93.66;100786.84;2057658;28;46838;-60
2023/10/17 00:38:20;;;;;;;;;7.60;6.60;;;;;14.44;93.80;100780.63;2066754;28;46888;-59
2023/10/17 00:39:36;;;;;;;;;3.50;3.50;;;;;14.43;93.85;100777.06;2063016;28;46348;-57
2023/10/17 00:40:51;;;;;;;;;4.75;4.75;;;;;14.42;93.73;100764.66;2062921;28;46368;-60
2023/10/17 00:43:11;;;;;;;;;5.00;4.20;;;;;14.40;93.88;100762.97;2066400;28;46592;-57
2023/10/17 00:44:14;;;;;;;;;4.00;4.00;;;;;14.39;94.05;100759.44;2061510;28;46419;-58
2023/10/17 00:45:15;;;;;;;;;4.80;4.80;;;;;14.40;93.60;100769.19;2063461;28;46624;-60
2023/10/17 00:46:16;;;;;;;;;4.50;3.00;;;;;14.40;94.18;100768.31;2062960;28;46597;-57
2023/10/17 00:47:19;;;;;;;;;3.75;3.75;;;;;14.40;94.04;100765.63;2054692;28;46343;-61
2023/10/17 00:48:22;;;;;;;;;1.00;1.00;;;;;14.39;93.95;100771.91;2063616;28;46659;-58
2023/10/17 00:49:25;;;;;;;;;4.00;4.00;;;;;14.38;94.04;100768.38;2063410;28;46628;-59
2023/10/17 00:50:28;;;;;;;;;4.00;4.00;;;;;14.37;93.96;100771.97;2057521;28;46825;-61
2023/10/17 00:51:28;;;;;;;;;5.80;5.80;;;;;14.35;94.00;100765.78;2064388;28;46593;-62
2023/10/17 00:52:32;;;;;;;;;6.00;4.00;;;;;14.36;94.03;100762.22;2092837;28;46611;-58
2023/10/17 00:53:32;;;;;;;;;2.00;2.00;;;;;14.34;94.17;100761.38;2062256;28;46625;-60
2023/10/17 00:54:35;;;;;;;;;7.00;7.00;;;;;14.33;94.15;100770.31;2060860;28;46689;-57
2023/10/17 00:55:37;;;;;;;;;13.40;11.60;;;;;14.32;94.19;100754.34;2083630;28;46675;-61
2023/10/17 00:56:38;;;;;;;;;7.40;7.40;;;;;14.30;94.26;100758.88;2066740;28;46459;-60
2023/10/17 00:57:41;;;;;;;;;3.00;2.60;;;;;14.27;94.27;100754.53;2062910;28;46901;-56
2023/10/17 00:58:44;;;;;;;;;7.50;7.25;;;;;14.27;94.52;100748.31;2084494;27;45931;-60
2023/10/17 00:59:50;;;;;;;;;4.00;4.00;;;;;14.27;94.41;100748.31;2060832;27;46598;-57
2023/10/17 01:00:58;;;;;;;;;4.25;4.25;;;;;14.25;94.50;100748.38;2092843;28;46031;-61
2023/10/17 01:02:10;;;;;;;;;4.75;3.75;;;;;14.26;94.60;100738.56;2083269;28;46371;-61
2023/10/17 01:03:13;;;;;;;;;4.00;4.00;;;;;14.25;94.67;100737.72;2061518;28;46302;-59
2023/10/17 01:04:15;;;;;;;;;6.00;5.20;;;;;14.24;94.70;100735.09;2085666;28;46475;-60
2023/10/17 01:05:16;;;;;;;;;3.80;3.80;;;;;14.22;94.78;100731.59;2080293;28;46531;-62
2023/10/17 01:07:26;;;;;;;;;3.20;3.20;;;;;14.23;94.95;100731.56;2056193;28;46706;-62
2023/10/17 01:08:45;;;;;;;;;3.80;3.80;;;;;14.21;95.09;100730.72;2080599;28;46933;-60
2023/10/17 01:09:47;;;;;;;;;5.25;4.25;;;;;14.20;95.21;100731.66;2065043;28;46368;-61
2023/10/17 01:10:48;;;;;;;;;2.75;2.75;;;;;14.20;95.44;100730.78;2083485;28;46519;-59
2023/10/17 01:11:48;;;;;;;;;4.00;4.00;;;;;14.19;95.38;100731.69;2089806;28;47076;-61
2023/10/17 01:13:05;;;;;;;;;3.00;3.00;;;;;14.21;95.41;100737.84;2067611;28;46329;-60
2023/10/17 01:14:05;;;;;;;;;5.00;5.00;;;;;14.22;95.59;100743.13;2059567;28;46574;-59
2023/10/17 01:15:06;;;;;;;;;5.67;4.00;;;;;14.23;95.53;100744.91;2093047;28;46331;-61
2023/10/17 01:16:08;;;;;;;;;4.00;3.00;;;;;14.22;95.36;100750.28;2067819;28;46917;-60
2023/10/17 01:17:12;;;;;;;;;4.00;4.00;;;;;14.21;95.27;100740.53;2056540;28;46588;-59
2023/10/17 01:18:13;;;;;;;;;3.75;3.75;;;;;14.20;95.38;100738.78;2072571;28;46636;-59
2023/10/17 01:19:19;;;;;;;;;3.75;3.75;;;;;14.19;95.28;100743.25;2060452;27;46248;-60
2023/10/17 01:20:20;;;;;;;;;4.80;4.80;;;;;14.20;95.48;100746.78;2056306;28;46765;-59
2023/10/17 01:21:21;;;;;;;;;4.60;3.80;;;;;14.21;95.59;100735.19;2075271;28;46823;-59
2023/10/17 01:22:22;;;;;;;;;3.80;3.80;;;;;14.21;95.53;100735.19;2065422;28;46671;-60
2023/10/17 01:23:23;;;;;;;;;3.00;3.00;;;;;14.19;95.53;100729.91;2079230;28;46698;-60
2023/10/17 01:24:25;;;;;;;;;3.20;3.20;;;;;14.18;95.33;100733.50;2071688;28;47045;-60
2023/10/17 01:25:30;;;;;;;;;4.60;4.60;;;;;14.16;95.53;100724.69;2077619;28;46990;-60
2023/10/17 01:26:30;;;;;;;;;5.80;5.00;;;;;14.14;95.52;100730.09;2088784;28;46457;-60
2023/10/17 01:27:31;;;;;;;;;3.25;3.25;;;;;14.13;95.52;100728.34;2060588;28;46277;-61
2023/10/17 01:28:32;;;;;;;;;3.80;3.80;;;;;14.11;95.61;100726.66;2080808;28;47071;-61
2023/10/17 01:29:32;;;;;;;;;3.00;3.00;;;;;14.11;95.79;100732.88;2089221;27;46313;-61
2023/10/17 01:30:34;;;;;;;;;3.80;3.80;;;;;14.10;95.72;100730.22;2058438;28;46562;-60
2023/10/17 01:31:38;;;;;;;;;4.00;4.00;;;;;14.09;95.75;100728.50;2087628;28;46430;-61
2023/10/17 01:32:39;;;;;;;;;3.00;3.00;;;;;14.08;95.99;100724.09;2072187;28;46855;-58
2023/10/17 01:33:42;;;;;;;;;3.00;3.00;;;;;14.08;95.81;100718.75;2072534;28;46540;-60
2023/10/17 01:34:43;;;;;;;;;6.20;4.20;;;;;14.08;96.03;100722.28;2088474;28;46826;-61
2023/10/17 01:35:44;;;;;;;;;5.50;5.50;;;;;14.07;96.17;100725.00;2073830;28;46819;-57
2023/10/17 01:36:44;;;;;;;;;3.60;3.60;;;;;14.05;96.23;100724.19;2077407;28;46730;-62
2023/10/17 01:37:48;;;;;;;;;4.00;4.00;;;;;14.04;96.20;100723.31;2054745;28;46339;-60
2023/10/17 01:38:51;;;;;;;;;4.40;4.40;;;;;14.01;96.22;100718.09;2062565;28;46982;-60
2023/10/17 01:39:52;;;;;;;;;6.00;5.00;;;;;14.02;96.35;100724.31;2062818;28;46437;-60
2023/10/17 01:40:55;;;;;;;;;4.50;4.50;;;;;14.02;96.77;100727.84;2061911;28;46180;-60
2023/10/17 01:41:55;;;;;;;;;4.80;4.80;;;;;14.02;96.68;100732.31;2077270;28;46547;-60
2023/10/17 01:42:59;;;;;;;;;4.75;4.75;;;;;14.01;97.05;100730.56;2065155;28;45753;-57
2023/10/17 01:44:03;;;;;;;;;3.00;3.00;;;;;14.00;96.80;100736.84;2071141;28;46563;-63
2023/10/17 01:45:10;;;;;;;;;4.00;4.00;;;;;13.98;96.92;100736.91;2077588;28;46339;-62
2023/10/17 01:46:14;;;;;;;;;4.00;4.00;;;;;13.99;97.10;100738.63;2065826;28;46598;-60
2023/10/17 01:47:14;;;;;;;;;4.25;3.50;;;;;13.99;96.96;100732.44;2070568;28;46923;-61
2023/10/17 01:48:14;;;;;;;;;3.00;3.00;;;;;13.99;97.00;100732.44;2076337;28;46167;-61
2023/10/17 01:49:18;;;;;;;;;2.00;2.00;;;;;13.99;96.79;100738.63;2062387;28;46198;-60
2023/10/17 01:50:19;;;;;;;;;4.00;4.00;;;;;14.00;97.09;100735.03;2076663;28;46671;-61
2023/10/17 01:51:20;;;;;;;;;3.80;3.80;;;;;13.98;96.93;100733.38;2075587;28;46946;-60
2023/10/17 01:52:20;;;;;;;;;3.20;2.20;;;;;13.96;97.11;100736.06;2067672;28;46738;-61
2023/10/17 01:53:22;;;;;;;;;3.50;3.50;;;;;13.94;97.33;100732.56;2074091;28;46798;-59
2023/10/17 01:54:23;;;;;;;;;4.00;4.00;;;;;13.97;97.16;100734.25;2064695;28;46284;-60
2023/10/17 01:55:29;;;;;;;;;4.60;4.00;;;;;13.94;97.18;100737.91;2065446;28;46329;-61
2023/10/17 01:56:29;;;;;;;;;4.80;4.80;;;;;13.96;97.10;100741.41;2069487;28;47059;-60
2023/10/17 01:57:30;;;;;;;;;5.25;4.00;;;;;13.95;97.10;100738.78;2061511;28;46364;-54
2023/10/17 01:58:31;;;;;;;;;3.60;3.60;;;;;13.94;97.18;100739.72;2069181;28;46646;-59
2023/10/17 01:59:34;;;;;;;;;3.80;3.80;;;;;13.92;97.14;100739.78;2069842;28;46788;-60
2023/10/17 02:00:38;;;;;;;;;6.20;5.60;;;;;13.90;97.52;100748.75;2092346;28;46468;-57
2023/10/17 02:01:40;;;;;;;;;4.20;4.20;;;;;13.91;97.68;100750.50;2061390;28;46284;-59
2023/10/17 02:02:42;;;;;;;;;5.60;3.80;;;;;13.88;97.54;100742.59;2061865;28;46555;-60
2023/10/17 02:03:46;;;;;;;;;5.20;5.20;;;;;13.87;97.51;100749.75;2062492;28;46710;-60
2023/10/17 02:04:49;;;;;;;;;4.00;4.00;;;;;13.87;97.60;100749.75;2070068;28;46361;-60
2023/10/17 02:05:49;;;;;;;;;4.00;4.00;;;;;13.86;97.59;100753.34;2066308;28;46518;-60
2023/10/17 02:06:51;;;;;;;;;5.25;5.25;;;;;13.86;97.90;100749.81;2062453;28;46334;-57
2023/10/17 02:07:54;;;;;;;;;5.20;5.20;;;;;13.86;98.17;100749.81;2068818;28;46911;-61
2023/10/17 02:08:55;;;;;;;;;4.40;4.40;;;;;13.87;98.34;100748.88;2067091;28;46892;-60
2023/10/17 02:09:55;;;;;;;;;6.20;5.20;;;;;13.87;98.21;100748.88;2057897;27;46791;-61
2023/10/17 02:10:56;;;;;;;;;4.25;4.25;;;;;13.85;98.39;100746.25;2066628;28;46501;-62
2023/10/17 02:12:00;;;;;;;;;5.00;5.00;;;;;13.86;98.27;100747.13;2062078;28;46227;-61
2023/10/17 02:13:03;;;;;;;;;8.80;7.00;;;;;13.87;98.45;100747.06;2061473;28;46748;-61
2023/10/17 02:14:06;;;;;;;;;5.80;5.80;;;;;13.87;98.37;100748.88;2060414;28;46421;-60
2023/10/17 02:15:07;;;;;;;;;5.00;5.00;;;;;13.86;98.02;100733.78;2062346;28;46368;-61
2023/10/17 02:16:10;;;;;;;;;4.00;4.00;;;;;13.88;98.30;100738.16;2060928;28;46440;-61
2023/10/17 02:17:15;;;;;;;;;5.60;5.60;;;;;13.89;98.24;100741.69;2062587;28;46607;-61
2023/10/17 02:18:15;;;;;;;;;5.40;4.60;;;;;13.89;98.04;100739.88;2054652;28;46484;-61
2023/10/17 02:19:16;;;;;;;;;5.75;5.75;;;;;13.89;98.00;100734.56;2070888;27;46465;-61
2023/10/17 02:20:30;;;;;;;;;7.00;6.00;;;;;13.92;98.08;100741.56;2078144;27;46748;-61
2023/10/17 02:21:30;;;;;;;;;6.00;5.40;;;;;13.90;98.18;100740.75;2054286;28;46505;-62
2023/10/17 02:22:31;;;;;;;;;6.50;6.50;;;;;13.89;98.18;100739.88;2063938;28;46304;-57
2023/10/17 02:23:39;;;;;;;;;7.25;6.75;;;;;13.89;98.18;100741.69;2063172;28;46430;-57
2023/10/17 02:24:40;;;;;;;;;5.80;5.80;;;;;13.86;98.25;100734.66;2095971;28;46972;-59
2023/10/17 02:25:41;;;;;;;;;5.00;5.00;;;;;13.86;98.42;100740.00;2069022;28;46168;-59
2023/10/17 02:26:42;;;;;;;;;6.00;6.00;;;;;13.84;98.36;100740.03;2061873;28;46085;-61
2023/10/17 02:27:44;;;;;;;;;4.00;4.00;;;;;13.83;98.19;100738.28;2061890;28;46585;-61
2023/10/17 02:28:45;;;;;;;;;6.00;6.00;;;;;13.81;98.45;100739.25;2064041;28;46568;-56
2023/10/17 02:29:47;;;;;;;;;8.50;7.00;;;;;13.82;98.61;100739.22;2055267;28;46236;-61
2023/10/17 02:30:48;;;;;;;;;3.20;3.20;;;;;13.81;98.24;100742.81;2064482;28;46429;-58
2023/10/17 02:31:52;;;;;;;;;3.25;3.25;;;;;13.81;98.57;100747.28;2065351;28;46102;-60
2023/10/17 02:32:53;;;;;;;;;1.20;1.20;;;;;13.78;98.54;100739.38;2061987;28;46430;-61
2023/10/17 02:33:54;;;;;;;;;4.80;4.80;;;;;13.79;98.74;100747.31;2063296;28;46643;-56
2023/10/17 02:34:55;;;;;;;;;3.60;3.60;;;;;13.80;98.68;100746.41;2064874;28;46264;-61
2023/10/17 02:36:07;;;;;;;;;3.00;3.00;;;;;13.78;98.43;100745.59;2061932;28;47092;-61
2023/10/17 02:37:11;;;;;;;;;4.00;4.00;;;;;13.77;98.54;100742.97;2065398;28;47220;-61
2023/10/17 02:38:11;;;;;;;;;3.60;3.60;;;;;13.77;98.79;100741.19;2062737;28;46360;-60
2023/10/17 02:39:12;;;;;;;;;5.25;5.25;;;;;13.76;98.91;100742.09;2076287;28;46294;-58
2023/10/17 02:40:20;;;;;;;;;5.00;5.00;;;;;13.77;98.69;100741.19;2073385;28;46816;-61
2023/10/17 02:41:23;;;;;;;;;3.60;3.60;;;;;13.76;98.69;100734.09;2068067;28;46571;-60
2023/10/17 02:42:23;;;;;;;;;4.60;3.60;;;;;13.78;98.91;100734.03;2072021;28;46853;-61
2023/10/17 02:43:24;;;;;;;;;4.75;4.75;;;;;13.76;98.98;100736.78;2084852;27;46648;-58
2023/10/17 02:44:24;;;;;;;;;4.00;4.00;;;;;13.76;98.75;100728.78;2078985;27;46375;-60
2023/10/17 02:45:25;;;;;;;;;4.00;4.00;;;;;13.75;98.89;100740.38;2087005;28;46483;-60
2023/10/17 02:46:28;;;;;;;;;3.50;3.00;;;;;13.74;98.84;100737.75;2066309;28;46222;-60
2023/10/17 02:47:28;;;;;;;;;5.20;5.20;;;;;13.73;98.83;100728.88;2058556;28;46520;-62
2023/10/17 02:48:29;;;;;;;;;7.25;5.00;;;;;13.72;99.13;100734.25;2084730;28;46203;-61
2023/10/17 02:49:37;;;;;;;;;4.50;3.50;;;;;13.72;99.27;100736.91;2065737;28;46743;-60
2023/10/17 02:51:43;;;;;;;;;4.00;4.00;;;;;13.69;99.16;100724.56;2083516;28;46596;-58
2023/10/17 02:52:43;;;;;;;;;4.20;4.20;;;;;13.68;99.14;100730.81;2066536;28;47192;-60
2023/10/17 02:53:43;;;;;;;;;4.75;4.75;;;;;13.68;99.36;100728.16;2068400;28;46884;-60
2023/10/17 02:54:56;;;;;;;;;4.25;4.25;;;;;13.69;99.63;100732.56;2075558;28;46115;-60
2023/10/17 02:55:57;;;;;;;;;4.00;4.00;;;;;13.68;99.45;100729.94;2063135;28;46317;-57
2023/10/17 02:56:57;;;;;;;;;7.00;5.40;;;;;13.68;99.68;100737.94;2086464;28;46686;-58
2023/10/17 02:57:58;;;;;;;;;6.00;4.50;;;;;13.65;99.77;100730.94;2076294;28;45940;-60
2023/10/17 02:59:04;;;;;;;;;5.00;5.00;;;;;13.65;99.77;100740.72;2072334;28;46251;-60
2023/10/17 03:00:44;;;;;;;;;4.40;4.40;;;;;13.63;99.75;100732.78;2087328;28;46807;-57
2023/10/17 03:01:45;;;;;;;;;4.80;4.20;;;;;13.63;99.81;100734.56;2091340;27;46395;-60
2023/10/17 03:02:48;;;;;;;;;4.60;4.40;;;;;13.62;99.69;100731.03;2070017;28;46427;-60
2023/10/17 03:03:51;;;;;;;;;3.60;3.60;;;;;13.62;99.67;100730.16;2069159;28;46111;-60
2023/10/17 03:04:51;;;;;;;;;4.00;4.00;;;;;13.61;99.91;100728.44;2087498;28;46140;-60
2023/10/17 03:05:53;;;;;;;;;4.00;4.00;;;;;13.60;99.68;100729.34;2063597;28;46557;-60
2023/10/17 03:06:56;;;;;;;;;4.00;3.40;;;;;13.60;99.83;100730.22;2061838;28;46854;-57
2023/10/17 03:07:56;;;;;;;;;4.80;4.80;;;;;13.59;100.00;100730.25;2086065;28;47209;-57
2023/10/17 03:09:06;;;;;;;;;5.00;5.00;;;;;13.59;100.00;100725.78;2061283;28;46175;-59
2023/10/17 03:10:08;;;;;;;;;3.40;3.40;;;;;13.59;100.00;100727.59;2077611;28;46971;-60
2023/10/17 03:11:08;;;;;;;;;4.40;4.40;;;;;13.57;100.00;100722.31;2084371;28;46154;-59
2023/10/17 03:12:12;;;;;;;;;4.75;3.50;;;;;13.58;100.00;100728.50;2062765;27;46686;-60
2023/10/17 03:14:23;;;;;;;;;5.40;5.00;;;;;13.56;100.00;100723.22;2069047;28;46423;-60
2023/10/17 03:15:29;;;;;;;;;5.00;4.00;;;;;13.57;100.00;100718.78;2100980;27;46428;-58
2023/10/17 03:16:30;;;;;;;;;5.80;4.40;;;;;13.58;100.00;100723.19;2074440;28;46501;-60
2023/10/17 03:17:30;;;;;;;;;3.75;3.75;;;;;13.58;100.00;100717.84;2062032;28;46773;-60
2023/10/17 03:18:31;;;;;;;;;4.25;4.25;;;;;13.58;100.00;100715.19;2086337;28;46114;-59
2023/10/17 03:19:33;;;;;;;;;3.75;3.75;;;;;13.60;100.00;100718.69;2074290;28;46406;-57
2023/10/17 03:20:36;;;;;;;;;6.80;6.00;;;;;13.58;100.00;100710.72;2083867;28;46753;-60
2023/10/17 03:21:39;;;;;;;;;5.00;5.00;;;;;13.59;100.00;100715.13;2084623;28;46475;-61
2023/10/17 03:22:39;;;;;;;;;6.00;4.80;;;;;13.59;100.00;100714.25;2067963;28;46480;-59
2023/10/17 03:23:46;;;;;;;;;4.25;4.25;;;;;13.59;100.00;100712.47;2082997;28;46413;-59
2023/10/17 03:24:47;;;;;;;;;4.60;4.00;;;;;13.58;100.00;100710.72;2082811;28;45474;-57
2023/10/17 03:25:48;;;;;;;;;5.75;5.75;;;;;13.58;100.00;100708.06;2064095;28;46904;-60
2023/10/17 03:26:54;;;;;;;;;4.00;4.00;;;;;13.57;100.00;100708.97;2086657;28;46419;-62
2023/10/17 03:27:55;;;;;;;;;4.00;4.00;;;;;13.53;100.00;100708.22;2082314;28;46840;-62
2023/10/17 03:28:55;;;;;;;;;4.00;4.00;;;;;13.54;100.00;100711.75;2070325;28;46685;-62
2023/10/17 03:29:55;;;;;;;;;6.50;5.00;;;;;13.53;100.00;100710.88;2086047;28;46193;-61
2023/10/17 03:30:56;;;;;;;;;5.50;4.25;;;;;13.52;100.00;100713.59;2058838;28;45014;-56
2023/10/17 03:31:58;;;;;;;;;4.00;4.00;;;;;13.51;100.00;100711.88;2071786;28;46900;-60
2023/10/17 03:33:59;;;;;;;;;5.00;5.00;;;;;13.44;100.00;100712.97;2070171;28;45849;-61
2023/10/17 03:35:02;;;;;;;;;3.75;3.75;;;;;13.41;100.00;100707.75;2075960;28;46836;-60
2023/10/17 03:38:31;;;;;;;;;4.80;4.80;;;;;13.41;100.00;100703.28;2082714;28;46403;-61
2023/10/17 03:39:45;;;;;;;;;4.00;4.00;;;;;13.39;100.00;100707.81;2086601;28;45784;-58
2023/10/17 03:40:53;;;;;;;;;4.00;4.00;;;;;13.38;100.00;100706.06;2075536;28;46588;-61
2023/10/17 03:41:56;;;;;;;;;4.40;4.40;;;;;13.43;100.00;100709.44;2061255;28;46785;-59
2023/10/17 03:43:04;;;;;;;;;6.40;3.40;;;;;13.42;100.00;100707.69;2094855;28;46408;-60
2023/10/17 03:44:04;;;;;;;;;5.60;5.60;;;;;13.43;100.00;100719.25;2075799;28;46696;-60
2023/10/17 03:46:39;;;;;;;;;4.60;3.60;;;;;13.40;100.00;100719.34;2057901;28;47278;-60
2023/10/17 03:47:40;;;;;;;;;4.00;4.00;;;;;13.40;100.00;100716.69;2072233;28;46497;-62
2023/10/17 03:48:49;;;;;;;;;4.80;4.80;;;;;13.42;100.00;100712.16;2079384;28;46907;-60
2023/10/17 03:49:55;;;;;;;;;5.20;5.20;;;;;13.43;100.00;100713.91;2079283;28;45744;-58
2023/10/17 03:51:15;;;;;;;;;4.00;4.00;;;;;13.42;100.00;100714.84;2079412;28;46503;-60
2023/10/17 03:52:16;;;;;;;;;6.80;4.00;;;;;13.40;100.00;100712.22;2079667;28;46410;-59
2023/10/17 03:53:28;;;;;;;;;5.80;5.80;;;;;13.42;100.00;100710.38;2071775;28;45802;-62
2023/10/17 03:54:28;;;;;;;;;6.00;4.80;;;;;13.42;100.00;100710.38;2073029;28;46540;-60
2023/10/17 03:55:29;;;;;;;;;6.00;4.75;;;;;13.44;100.00;100708.53;2079088;28;46273;-61
2023/10/17 03:56:36;;;;;;;;;0.00;0.00;;;;;13.43;100.00;100712.09;2079843;28;45543;-62
2023/10/17 03:57:52;;;;;;;;;3.00;3.00;;;;;13.43;100.00;100708.56;2078442;28;46611;-63
2023/10/17 04:00:25;;;;;;;;;5.40;5.40;;;;;13.40;100.00;100720.22;2079511;28;46256;-59
2023/10/17 04:01:28;;;;;;;;;6.80;6.80;;;;;13.39;100.00;100718.47;2079858;28;46694;-62
2023/10/17 04:02:31;;;;;;;;;6.80;6.00;;;;;13.38;100.00;100716.75;2071475;28;46348;-61
2023/10/17 04:03:32;;;;;;;;;5.20;5.00;;;;;13.36;100.00;100713.25;2072259;28;46717;-63
2023/10/17 04:04:47;;;;;;;;;6.00;5.00;;;;;13.37;100.00;100715.00;2080243;28;46913;-64
2023/10/17 04:06:01;;;;;;;;;3.40;3.40;;;;;13.40;100.00;100708.69;2079347;28;46931;-58
2023/10/17 04:07:05;;;;;;;;;5.60;5.60;;;;;13.40;100.00;100706.88;2077311;28;46689;-60
2023/10/17 04:08:06;;;;;;;;;4.80;4.80;;;;;13.43;100.00;100705.91;2079116;28;46728;-61
2023/10/17 04:09:26;;;;;;;;;7.60;6.40;;;;;13.39;100.00;100704.28;2072881;28;46328;-61
2023/10/17 04:10:36;;;;;;;;;5.20;4.60;;;;;13.39;100.00;100713.16;2079135;28;47178;-60
2023/10/17 04:11:36;;;;;;;;;6.20;6.20;;;;;13.38;100.00;100714.06;2079815;28;45613;-62
2023/10/17 04:12:48;;;;;;;;;4.67;4.67;;;;;13.41;100.00;100718.44;2076948;28;46065;-58
2023/10/17 04:13:54;;;;;;;;;3.60;3.60;;;;;13.40;100.00;100724.69;2079007;28;46562;-59
2023/10/17 04:14:58;;;;;;;;;4.80;4.80;;;;;13.40;100.00;100722.00;2079153;28;46882;-61
2023/10/17 04:15:59;;;;;;;;;4.40;4.40;;;;;13.38;100.00;100722.06;2079593;28;46162;-61
2023/10/17 04:17:02;;;;;;;;;6.50;5.00;;;;;13.40;100.00;100714.88;2079424;28;46634;-60
2023/10/17 04:18:03;;;;;;;;;2.60;2.60;;;;;13.39;100.00;100715.81;2079339;28;46827;-60
2023/10/17 04:19:16;;;;;;;;;4.50;4.50;;;;;13.38;100.00;100714.06;2079509;28;46222;-60
2023/10/17 04:20:18;;;;;;;;;5.60;5.60;;;;;13.38;100.00;100713.19;2079181;28;46565;-62
2023/10/17 04:21:26;;;;;;;;;3.80;3.80;;;;;13.37;100.00;100711.47;2079428;28;46998;-56
2023/10/17 04:22:29;;;;;;;;;3.00;3.00;;;;;13.38;100.00;100705.19;2079752;28;46653;-60
2023/10/17 04:23:31;;;;;;;;;5.80;5.80;;;;;13.38;100.00;100710.53;2079185;28;46585;-59
2023/10/17 04:24:34;;;;;;;;;8.00;8.00;;;;;13.38;100.00;100702.53;2057315;28;46320;-56
2023/10/17 04:25:37;;;;;;;;;7.60;6.60;;;;;13.38;100.00;100699.88;2076676;28;46731;-59
2023/10/17 04:26:44;;;;;;;;;7.00;4.60;;;;;13.37;100.00;100698.13;2081510;28;46947;-58
2023/10/17 04:27:45;;;;;;;;;7.40;7.00;;;;;13.36;100.00;100707.06;2078295;28;45951;-59
2023/10/17 04:28:49;;;;;;;;;5.80;4.80;;;;;13.36;100.00;100707.06;2062239;28;46966;-56
2023/10/17 04:29:50;;;;;;;;;5.60;5.60;;;;;13.36;100.00;100713.25;2068834;27;46416;-58
2023/10/17 04:30:50;;;;;;;;;8.25;7.50;;;;;13.38;100.00;100705.19;2063587;28;46709;-62
2023/10/17 04:31:55;;;;;;;;;8.25;6.75;;;;;13.39;100.00;100712.28;2067668;28;46464;-61
2023/10/17 04:33:08;;;;;;;;;6.80;6.80;;;;;13.39;100.00;100715.81;2076606;28;46489;-58
2023/10/17 04:34:14;;;;;;;;;8.00;7.00;;;;;13.39;100.00;100706.94;2099103;28;46368;-57
2023/10/17 04:35:20;;;;;;;;;6.40;6.40;;;;;13.38;100.00;100716.75;2060378;28;46595;-56
2023/10/17 04:36:20;;;;;;;;;7.60;7.60;;;;;13.36;100.00;100707.06;2086284;28;46458;-58
2023/10/17 04:37:33;;;;;;;;;6.50;6.25;;;;;13.35;100.00;100708.84;2100449;28;46215;-62
2023/10/17 04:38:37;;;;;;;;;6.20;6.20;;;;;13.36;100.00;100713.25;2072146;28;46812;-60
2023/10/17 04:39:48;;;;;;;;;8.40;7.00;;;;;13.34;100.00;100712.44;2085800;28;47148;-61
2023/10/17 04:42:47;;;;;;;;;6.20;6.20;;;;;13.35;100.00;100718.63;2074200;28;46653;-60
2023/10/17 04:44:03;;;;;;;;;6.60;6.60;;;;;13.34;100.00;100722.19;2079381;28;46743;-54
2023/10/17 04:45:13;;;;;;;;;6.00;5.00;;;;;13.33;100.00;100718.66;2076410;28;47029;-59
2023/10/17 04:46:16;;;;;;;;;6.00;6.00;;;;;13.31;100.00;100715.19;2079370;28;47803;-61
2023/10/17 04:48:40;;;;;;;;;6.80;6.80;;;;;13.32;100.00;100713.38;2077180;28;45943;-57
2023/10/17 04:49:40;;;;;;;;;6.60;6.60;;;;;13.32;100.00;100710.72;2079209;28;46818;-56
2023/10/17 04:50:45;;;;;;;;;5.00;5.00;;;;;13.33;100.00;100704.47;2079148;28;46624;-60
2023/10/17 04:51:45;;;;;;;;;7.80;7.80;;;;;13.30;100.00;100691.25;2079325;28;46595;-61
2023/10/17 04:52:46;;;;;;;;;7.50;7.50;;;;;13.32;100.00;100700.06;2078910;28;46612;-62
2023/10/17 04:53:48;;;;;;;;;5.20;5.20;;;;;13.33;100.00;100696.47;2079471;28;46808;-58
2023/10/17 04:54:52;;;;;;;;;6.40;6.40;;;;;13.30;100.00;100702.78;2079188;28;46732;-62
2023/10/17 04:57:09;;;;;;;;;8.00;7.00;;;;;13.25;100.00;100691.41;2079042;28;46960;-60
2023/10/17 05:03:26;;;;;;;;;6.00;6.00;;;;;13.28;100.00;100687.78;2063400;28;46880;-61
2023/10/17 05:04:35;;;;;;;;;7.00;6.60;;;;;13.26;100.00;100682.50;2062920;28;46681;-58
2023/10/17 05:05:45;;;;;;;;;8.00;8.00;;;;;13.28;100.00;100687.78;2054399;28;46727;-60
2023/10/17 05:08:11;;;;;;;;;8.00;8.00;;;;;13.26;100.00;100674.50;2062589;28;46475;-58
2023/10/17 06:17:27;;;;;;;;;4.00;3.80;;;;;13.02;100.00;100710.78;2062681;28;46667;-60
2023/10/17 06:18:28;;;;;;;;;11.80;10.20;;;;;13.01;100.00;100703.69;2094224;28;46852;-59
2023/10/17 06:19:32;;;;;;;;;9.50;9.50;;;;;13.00;100.00;100709.09;2084403;28;46552;-58
2023/10/17 06:27:11;;;;;;;;;7.80;7.80;;;;;13.05;100.00;100712.47;2054283;28;46994;-61
2023/10/17 06:30:29;;;;;;;;;8.60;7.80;;;;;13.02;100.00;100716.09;2099750;28;46798;-58
2023/10/17 06:31:34;;;;;;;;;8.60;7.20;;;;;12.99;100.00;100715.34;2099232;28;46831;-59
2023/10/17 06:33:37;;;;;;;;;9.80;8.20;;;;;12.96;100.00;100708.31;2061160;28;46775;-61
2023/10/17 06:34:38;;;;;;;;;7.75;7.75;;;;;12.94;100.00;100705.66;2056119;28;46606;-57
2023/10/17 06:35:55;;;;;;;;;8.50;8.00;;;;;12.97;100.00;100704.72;2059478;28;45835;-58